Time;durP1;ratioP1;P1;durP2;ratioP2;P2;SDS_P1;SDS_P2;PMS_P1;PMS_P2;Temp;Humidity;BMP_temperature;BMP_pressure;BME280_temperature;BME280_humidity;BME280_pressure;Samples;Min_cycle;Max_cycle;Signal;HPM_P1;HPM_P2
2023/11/14 00:00:25;;;;;;;39.53;5.82;;;11.50;99.90;;;;;;5126993;28;20019;-53
2023/11/14 00:02:51;;;;;;;47.40;6.72;;;11.50;99.90;;;;;;5126163;28;20034;-54
2023/11/14 00:05:17;;;;;;;38.55;6.57;;;11.40;99.90;;;;;;5127295;28;20058;-53
2023/11/14 00:07:43;;;;;;;46.58;6.63;;;11.50;99.90;;;;;;5127008;28;20066;-54
2023/11/14 00:10:09;;;;;;;36.72;6.20;;;11.50;99.90;;;;;;5127433;28;20034;-54
2023/11/14 00:12:36;;;;;;;42.58;8.07;;;11.50;99.90;;;;;;5127247;28;20043;-54
2023/11/14 00:15:02;;;;;;;44.35;6.65;;;11.50;99.90;;;;;;5125923;28;20019;-54
2023/11/14 00:17:28;;;;;;;44.67;6.65;;;11.50;99.90;;;;;;5126498;28;20040;-53
2023/11/14 00:19:53;;;;;;;42.40;6.00;;;11.50;99.90;;;;;;5127286;28;20053;-54
2023/11/14 00:22:19;;;;;;;38.70;5.75;;;11.50;99.90;;;;;;5126982;28;20277;-53
2023/11/14 00:24:46;;;;;;;41.90;6.38;;;11.50;99.90;;;;;;5126063;28;20091;-54
2023/11/14 00:27:12;;;;;;;41.85;6.70;;;11.50;99.90;;;;;;5126052;28;20120;-55
2023/11/14 00:29:38;;;;;;;49.75;7.53;;;11.50;99.90;;;;;;5126892;28;20274;-57
2023/11/14 00:32:04;;;;;;;34.70;5.82;;;11.60;99.90;;;;;;5125893;28;20028;-55
2023/11/14 00:34:30;;;;;;;44.15;7.07;;;11.60;99.90;;;;;;5125695;28;20040;-54
2023/11/14 00:36:56;;;;;;;43.30;6.78;;;11.60;99.90;;;;;;5126940;28;20016;-54
2023/11/14 00:39:22;;;;;;;46.42;6.65;;;11.60;99.90;;;;;;5126761;28;20038;-54
2023/11/14 00:41:53;;;;;;;46.80;7.55;;;11.50;99.90;;;;;;5125878;28;20095;-54
2023/11/14 00:44:22;;;;;;;44.03;6.72;;;11.50;99.90;;;;;;5126675;28;20026;-54
2023/11/14 00:46:48;;;;;;;44.33;6.68;;;11.40;99.90;;;;;;5126275;28;20102;-54
2023/11/14 00:49:14;;;;;;;32.42;5.78;;;11.40;99.90;;;;;;5126741;28;20064;-53
2023/11/14 00:51:40;;;;;;;40.40;5.55;;;11.40;99.90;;;;;;5125510;28;20092;-54
2023/11/14 00:54:06;;;;;;;42.55;5.97;;;11.40;99.90;;;;;;5126460;28;20036;-54
2023/11/14 00:56:31;;;;;;;51.30;6.95;;;11.40;99.90;;;;;;5126637;28;20023;-54
2023/11/14 00:58:57;;;;;;;42.88;6.78;;;11.40;99.90;;;;;;5126609;28;20027;-54
2023/11/14 01:01:23;;;;;;;43.60;6.60;;;11.30;99.90;;;;;;5126428;28;20080;-55
2023/11/14 01:03:48;;;;;;;53.15;9.10;;;11.30;99.90;;;;;;5126373;28;20034;-55
2023/11/14 01:06:14;;;;;;;40.88;7.20;;;11.30;99.90;;;;;;5126372;28;20031;-55
2023/11/14 01:08:40;;;;;;;44.80;7.20;;;11.30;99.90;;;;;;5126439;28;20104;-52
2023/11/14 01:11:05;;;;;;;39.45;7.22;;;11.30;99.90;;;;;;5126413;28;20100;-54
2023/11/14 01:13:31;;;;;;;46.72;6.50;;;11.30;99.90;;;;;;5126162;28;20024;-54
2023/11/14 01:15:57;;;;;;;52.35;6.85;;;11.30;99.90;;;;;;5126382;28;20096;-54
2023/11/14 01:18:22;;;;;;;42.22;6.53;;;11.30;99.90;;;;;;5125147;28;20046;-54
2023/11/14 01:20:48;;;;;;;42.10;6.15;;;11.30;99.90;;;;;;5126393;28;20177;-53
2023/11/14 01:23:16;;;;;;;40.75;5.68;;;11.30;99.90;;;;;;5125819;28;20035;-53
2023/11/14 01:25:42;;;;;;;48.05;8.00;;;11.30;99.90;;;;;;5125089;28;20020;-55
2023/11/14 01:28:08;;;;;;;38.67;7.03;;;11.30;99.90;;;;;;5130134;28;20086;-55
2023/11/14 01:30:34;;;;;;;49.70;6.93;;;11.40;99.90;;;;;;5130531;28;20046;-54
2023/11/14 01:33:00;;;;;;;42.05;7.43;;;11.40;99.90;;;;;;5130379;28;20064;-54
2023/11/14 01:35:25;;;;;;;35.45;5.72;;;11.40;99.90;;;;;;5130065;28;20260;-54
2023/11/14 01:37:51;;;;;;;45.95;7.60;;;11.40;99.90;;;;;;5130143;28;20042;-54
2023/11/14 01:40:17;;;;;;;36.40;6.10;;;11.40;99.90;;;;;;5130164;28;20076;-52
2023/11/14 01:42:42;;;;;;;36.78;6.07;;;11.40;99.90;;;;;;5129190;28;20177;-53
2023/11/14 01:45:09;;;;;;;49.55;8.05;;;11.40;99.90;;;;;;5130231;28;20281;-54
2023/11/14 01:47:34;;;;;;;54.60;8.82;;;11.40;99.90;;;;;;5129820;28;20030;-55
2023/11/14 01:50:00;;;;;;;50.03;7.20;;;11.40;99.90;;;;;;5129919;28;20047;-53
2023/11/14 01:52:26;;;;;;;49.38;7.82;;;11.50;99.90;;;;;;5129120;28;20054;-56
2023/11/14 01:54:51;;;;;;;38.55;5.63;;;11.40;99.90;;;;;;5129996;28;20024;-55
2023/11/14 01:57:17;;;;;;;40.15;6.65;;;11.50;99.90;;;;;;5129029;28;20253;-55
2023/11/14 01:59:43;;;;;;;45.17;6.53;;;11.50;99.90;;;;;;5128964;28;20083;-56
2023/11/14 02:02:08;;;;;;;35.53;6.28;;;11.50;99.90;;;;;;5128657;28;20027;-56
2023/11/14 02:04:34;;;;;;;44.00;7.82;;;11.50;99.90;;;;;;5129735;28;20023;-55
2023/11/14 02:07:00;;;;;;;41.97;5.85;;;11.50;99.90;;;;;;5128532;28;20205;-55
2023/11/14 02:09:27;;;;;;;35.92;6.45;;;11.50;99.90;;;;;;5129578;28;20027;-56
2023/11/14 02:11:53;;;;;;;45.60;6.85;;;11.50;99.90;;;;;;5129475;28;20032;-48
2023/11/14 02:14:18;;;;;;;49.63;6.65;;;11.50;99.90;;;;;;5128586;28;20034;-47
2023/11/14 02:16:48;;;;;;;37.45;5.60;;;11.50;99.90;;;;;;5129556;28;20259;-47
2023/11/14 02:19:14;;;;;;;42.58;7.15;;;11.60;99.90;;;;;;5129600;28;20031;-47
2023/11/14 02:21:41;;;;;;;26.45;4.50;;;11.60;99.90;;;;;;5129440;28;20095;-48
2023/11/14 02:24:08;;;;;;;45.97;6.38;;;11.70;99.90;;;;;;5128361;28;20027;-47
2023/11/14 02:26:34;;;;;;;38.97;5.28;;;11.70;99.90;;;;;;5129300;28;20189;-47
2023/11/14 02:29:00;;;;;;;44.63;5.18;;;11.70;99.90;;;;;;5128362;28;20030;-48
2023/11/14 02:31:27;;;;;;;39.97;6.05;;;11.70;99.90;;;;;;5129242;28;20031;-47
2023/11/14 02:33:53;;;;;;;49.92;7.00;;;11.70;99.90;;;;;;5111472;28;20032;-47
2023/11/14 02:36:19;;;;;;;41.28;5.40;;;11.70;99.90;;;;;;5129252;28;20043;-47
2023/11/14 02:38:44;;;;;;;37.25;6.20;;;11.60;99.90;;;;;;5128366;28;20028;-47
2023/11/14 02:41:10;;;;;;;48.25;5.85;;;11.70;99.90;;;;;;5127822;28;20332;-47
2023/11/14 02:43:36;;;;;;;34.53;5.03;;;11.70;99.90;;;;;;5129021;28;20195;-47
2023/11/14 02:46:01;;;;;;;38.85;6.45;;;11.70;99.90;;;;;;5129001;28;20027;-47
2023/11/14 02:48:27;;;;;;;44.35;6.03;;;11.70;99.90;;;;;;5127964;28;20023;-48
2023/11/14 02:50:54;;;;;;;41.88;6.75;;;11.70;99.90;;;;;;5127957;28;20027;-47
2023/11/14 02:53:20;;;;;;;49.00;6.55;;;11.80;99.90;;;;;;5128782;28;20173;-47
2023/11/14 02:55:47;;;;;;;32.50;4.93;;;11.80;99.90;;;;;;5128889;28;20095;-47
2023/11/14 02:58:13;;;;;;;34.28;5.63;;;11.90;99.90;;;;;;5127800;28;20073;-47
2023/11/14 03:00:41;;;;;;;52.75;6.95;;;11.90;99.90;;;;;;5128729;28;20031;-47
2023/11/14 03:03:09;;;;;;;52.65;6.93;;;12.00;99.90;;;;;;5128738;28;20024;-47
2023/11/14 03:05:36;;;;;;;34.25;5.38;;;11.90;99.90;;;;;;5128455;28;20031;-49
2023/11/14 03:08:02;;;;;;;35.33;7.20;;;11.90;99.90;;;;;;5128359;28;20047;-47
2023/11/14 03:10:30;;;;;;;39.90;6.07;;;11.80;99.90;;;;;;5128070;28;20047;-47
2023/11/14 03:12:56;;;;;;;37.35;6.05;;;11.80;99.90;;;;;;5128038;28;20058;-47
2023/11/14 03:15:22;;;;;;;48.15;6.03;;;11.80;99.90;;;;;;5127478;28;20050;-47
2023/11/14 03:17:48;;;;;;;39.72;6.00;;;11.80;99.90;;;;;;5128197;28;20039;-47
2023/11/14 03:20:14;;;;;;;39.00;6.47;;;11.70;99.90;;;;;;5128400;28;20023;-48
2023/11/14 03:22:39;;;;;;;50.80;6.85;;;11.70;99.90;;;;;;5128270;28;20028;-55
2023/11/14 03:25:05;;;;;;;51.53;6.60;;;11.70;99.90;;;;;;5127270;28;20028;-48
2023/11/14 03:27:31;;;;;;;42.65;5.68;;;11.70;99.90;;;;;;5128439;27;20034;-47
2023/11/14 03:29:57;;;;;;;39.03;5.53;;;11.70;99.90;;;;;;5127654;28;20062;-54
2023/11/14 03:32:23;;;;;;;32.50;5.45;;;11.70;99.90;;;;;;5128147;28;20027;-47
2023/11/14 03:34:49;;;;;;;45.00;5.55;;;11.80;99.90;;;;;;5126991;28;20223;-47
2023/11/14 03:37:14;;;;;;;37.40;5.10;;;11.90;99.90;;;;;;5128091;28;20166;-48
2023/11/14 03:39:43;;;;;;;38.70;6.28;;;11.90;99.90;;;;;;5127934;28;20020;-48
2023/11/14 03:42:09;;;;;;;46.85;6.22;;;11.90;99.90;;;;;;5126926;28;20052;-48
2023/11/14 03:44:34;;;;;;;37.30;5.80;;;12.00;99.90;;;;;;5127423;28;20043;-47
2023/11/14 03:47:00;;;;;;;29.70;5.20;;;12.00;99.90;;;;;;5126839;28;20250;-48
2023/11/14 03:49:26;;;;;;;36.88;4.40;;;12.00;99.90;;;;;;5127141;28;20084;-48
2023/11/14 03:51:51;;;;;;;32.83;4.90;;;12.00;99.90;;;;;;5127049;28;20027;-47
2023/11/14 03:54:17;;;;;;;31.85;5.28;;;12.00;99.90;;;;;;5127570;28;20169;-49
2023/11/14 03:56:43;;;;;;;26.40;3.72;;;12.00;99.90;;;;;;5126557;28;20185;-49
2023/11/14 03:59:08;;;;;;;22.17;4.35;;;12.00;99.90;;;;;;5127520;28;20023;-51
2023/11/14 04:01:34;;;;;;;36.45;4.72;;;12.00;99.90;;;;;;5127481;28;20185;-49
2023/11/14 04:04:00;;;;;;;30.38;4.57;;;12.00;99.90;;;;;;5109461;28;20019;-50
2023/11/14 04:06:25;;;;;;;30.70;4.13;;;12.00;99.90;;;;;;5127244;28;20297;-53
2023/11/14 04:08:51;;;;;;;21.42;4.03;;;12.00;99.90;;;;;;5126576;28;20099;-51
2023/11/14 04:11:17;;;;;;;24.92;3.58;;;12.00;99.90;;;;;;5127513;28;20066;-51
2023/11/14 04:13:43;;;;;;;25.77;3.85;;;12.00;99.90;;;;;;5126847;28;20035;-51
2023/11/14 04:16:08;;;;;;;28.08;4.57;;;12.00;99.90;;;;;;5126819;28;20042;-51
2023/11/14 04:18:34;;;;;;;31.92;5.68;;;12.10;99.90;;;;;;5127228;28;20039;-49
2023/11/14 04:21:00;;;;;;;31.25;4.32;;;12.00;99.90;;;;;;5127176;28;20024;-48
2023/11/14 04:23:25;;;;;;;30.13;3.65;;;12.00;99.90;;;;;;5127185;28;20287;-49
2023/11/14 04:25:51;;;;;;;26.08;3.97;;;12.00;99.90;;;;;;5126055;28;20031;-52
2023/11/14 04:28:17;;;;;;;23.95;3.97;;;12.00;99.90;;;;;;5126590;28;20201;-48
2023/11/14 04:30:43;;;;;;;28.10;4.22;;;12.10;99.90;;;;;;5127009;28;20057;-50
2023/11/14 04:33:08;;;;;;;26.35;4.05;;;12.10;99.90;;;;;;5127718;28;20094;-48
2023/11/14 04:35:34;;;;;;;35.25;5.20;;;12.10;99.90;;;;;;5126975;28;20077;-51
2023/11/14 04:38:00;;;;;;;33.20;5.38;;;12.10;99.90;;;;;;5127008;28;20091;-51
2023/11/14 04:40:25;;;;;;;25.45;3.85;;;12.10;99.90;;;;;;5125907;28;20016;-51
2023/11/14 04:42:51;;;;;;;33.95;4.97;;;12.10;99.90;;;;;;5126913;28;20036;-48
2023/11/14 04:45:17;;;;;;;33.08;5.18;;;12.10;99.90;;;;;;5126371;28;20065;-51
2023/11/14 04:47:43;;;;;;;29.00;4.70;;;12.10;99.90;;;;;;5126643;28;20023;-50
2023/11/14 04:50:09;;;;;;;31.20;4.68;;;12.10;99.90;;;;;;5125449;28;20031;-48
2023/11/14 04:52:35;;;;;;;41.58;6.13;;;12.00;99.90;;;;;;5126717;28;20038;-48
2023/11/14 04:55:01;;;;;;;40.30;5.07;;;12.00;99.90;;;;;;5126545;28;20023;-48
2023/11/14 04:57:27;;;;;;;32.72;4.55;;;12.00;99.90;;;;;;5126708;28;20036;-52
2023/11/14 04:59:52;;;;;;;39.67;4.88;;;12.00;99.90;;;;;;5126693;28;20027;-48
2023/11/14 05:02:19;;;;;;;33.72;4.82;;;11.90;99.90;;;;;;5126179;28;20050;-49
2023/11/14 05:04:45;;;;;;;40.95;5.38;;;11.90;99.90;;;;;;5126009;28;20095;-51
2023/11/14 05:07:11;;;;;;;28.77;4.07;;;11.90;99.90;;;;;;5126162;28;20059;-51
2023/11/14 05:09:38;;;;;;;33.33;4.75;;;11.90;99.90;;;;;;5126581;28;20288;-51
2023/11/14 05:12:05;;;;;;;32.05;5.07;;;11.90;99.90;;;;;;5125253;28;20106;-51
2023/11/14 05:14:31;;;;;;;33.17;4.60;;;11.90;99.90;;;;;;5125314;28;20023;-47
2023/11/14 05:16:56;;;;;;;32.80;4.93;;;11.80;99.90;;;;;;5125186;28;20129;-50
2023/11/14 05:19:27;;;;;;;30.38;5.88;;;11.80;99.90;;;;;;5126020;28;20100;-51
2023/11/14 05:21:53;;;;;;;29.83;5.13;;;11.80;99.90;;;;;;5126291;28;20019;-51
2023/11/14 05:24:18;;;;;;;35.72;5.30;;;11.80;99.90;;;;;;5126188;28;20022;-50
2023/11/14 05:26:44;;;;;;;27.98;5.47;;;11.80;99.90;;;;;;5126394;28;20035;-52
2023/11/14 05:29:10;;;;;;;29.58;4.25;;;11.80;99.90;;;;;;5125140;28;20292;-51
2023/11/14 05:31:36;;;;;;;33.72;5.10;;;11.80;99.90;;;;;;5126070;28;20032;-50
2023/11/14 05:34:02;;;;;;;32.63;4.55;;;11.80;99.90;;;;;;5126032;28;20040;-48
2023/11/14 05:36:27;;;;;;;34.30;5.05;;;11.80;99.90;;;;;;5126002;28;20062;-56
2023/11/14 05:38:53;;;;;;;30.45;5.28;;;11.70;99.90;;;;;;5126102;28;20060;-48
2023/11/14 05:41:19;;;;;;;29.98;4.13;;;11.80;99.90;;;;;;5125771;28;20062;-51
2023/11/14 05:43:44;;;;;;;25.27;3.95;;;11.70;99.90;;;;;;5125962;28;20081;-49
2023/11/14 05:46:11;;;;;;;30.95;4.43;;;11.60;99.90;;;;;;5125934;28;20030;-51
2023/11/14 05:48:36;;;;;;;31.50;5.35;;;11.60;99.90;;;;;;5126163;28;20080;-51
2023/11/14 05:51:03;;;;;;;33.75;4.75;;;11.60;99.90;;;;;;5125473;28;20036;-51
2023/11/14 05:53:29;;;;;;;32.75;4.15;;;11.60;99.90;;;;;;5125675;28;20023;-49
2023/11/14 05:55:56;;;;;;;32.22;4.60;;;11.50;99.90;;;;;;5124689;28;20042;-51
2023/11/14 05:58:22;;;;;;;36.72;6.05;;;11.50;99.90;;;;;;5125864;28;20024;-51
2023/11/14 06:00:48;;;;;;;31.55;4.35;;;11.50;99.90;;;;;;5091198;28;20016;-51
2023/11/14 06:03:14;;;;;;;40.03;6.45;;;11.50;99.90;;;;;;5125840;28;20035;-50
2023/11/14 06:05:40;;;;;;;34.33;5.05;;;11.50;99.90;;;;;;5125577;28;20028;-51
2023/11/14 06:08:05;;;;;;;37.50;4.68;;;11.50;99.90;;;;;;5125227;28;20050;-51
2023/11/14 06:10:31;;;;;;;40.75;5.10;;;11.60;99.90;;;;;;5125748;28;20103;-51
2023/11/14 06:12:58;;;;;;;32.80;5.10;;;11.60;99.90;;;;;;5124985;28;20280;-50
2023/11/14 06:15:24;;;;;;;36.97;5.35;;;11.60;99.90;;;;;;5129257;28;20031;-51
2023/11/14 06:17:50;;;;;;;31.08;5.45;;;11.60;99.90;;;;;;5129519;28;20226;-51
2023/11/14 06:20:16;;;;;;;47.90;6.43;;;11.60;99.90;;;;;;5129341;28;20020;-51
2023/11/14 06:22:41;;;;;;;46.00;5.57;;;11.60;99.90;;;;;;5128973;28;20020;-51
2023/11/14 06:25:08;;;;;;;39.60;5.35;;;11.60;99.90;;;;;;5128328;28;20035;-51
2023/11/14 06:27:34;;;;;;;31.60;5.38;;;11.60;99.90;;;;;;5129304;28;20034;-51
2023/11/14 06:29:59;;;;;;;32.17;4.78;;;11.50;99.90;;;;;;5129136;28;20028;-51
2023/11/14 06:32:25;;;;;;;35.78;4.95;;;11.50;99.90;;;;;;5129171;28;20265;-51
2023/11/14 06:34:52;;;;;;;37.63;5.82;;;11.50;99.90;;;;;;5129186;28;20207;-51
2023/11/14 06:37:19;;;;;;;28.88;4.95;;;11.50;99.90;;;;;;5128806;28;20023;-51
2023/11/14 06:39:46;;;;;;;29.98;4.55;;;11.50;99.90;;;;;;5127834;28;20042;-51
2023/11/14 06:42:12;;;;;;;29.35;4.60;;;11.50;99.90;;;;;;5128842;28;20028;-51
2023/11/14 06:44:37;;;;;;;34.00;4.82;;;11.50;99.90;;;;;;5128982;28;20026;-48
2023/11/14 06:47:03;;;;;;;30.83;4.93;;;11.60;99.90;;;;;;5128975;28;20074;-48
2023/11/14 06:49:29;;;;;;;24.17;4.40;;;11.50;99.90;;;;;;5128786;28;20027;-51
2023/11/14 06:51:55;;;;;;;38.72;4.72;;;11.60;99.90;;;;;;5127847;28;20031;-51
2023/11/14 06:54:20;;;;;;;34.25;4.82;;;11.60;99.90;;;;;;5128551;28;20035;-50
2023/11/14 06:56:46;;;;;;;28.17;4.13;;;11.60;99.90;;;;;;5128639;28;20077;-47
2023/11/14 06:59:12;;;;;;;40.78;4.80;;;11.60;99.90;;;;;;5128694;28;20171;-48
2023/11/14 07:01:37;;;;;;;24.10;4.15;;;11.60;99.90;;;;;;5128623;28;20039;-50
2023/11/14 07:04:03;;;;;;;29.52;4.40;;;11.60;99.90;;;;;;5128503;28;20019;-51
2023/11/14 07:06:29;;;;;;;33.00;5.18;;;11.70;99.90;;;;;;5128282;28;20031;-51
2023/11/14 07:08:56;;;;;;;31.05;5.30;;;11.80;99.90;;;;;;5128535;28;20039;-51
2023/11/14 07:11:22;;;;;;;34.42;4.40;;;11.80;99.90;;;;;;5128051;28;20237;-51
2023/11/14 07:13:48;;;;;;;29.15;4.57;;;11.80;99.90;;;;;;5128584;28;20153;-50
2023/11/14 07:16:14;;;;;;;21.20;3.40;;;11.90;99.90;;;;;;5128167;28;20050;-50
2023/11/14 07:18:40;;;;;;;30.83;4.70;;;11.90;99.90;;;;;;5128336;28;20015;-50
2023/11/14 07:21:06;;;;;;;36.95;5.35;;;11.90;99.90;;;;;;5128340;28;20027;-51
2023/11/14 07:23:32;;;;;;;32.97;4.80;;;11.80;99.90;;;;;;5128171;28;20149;-51
2023/11/14 07:25:57;;;;;;;29.10;4.82;;;11.80;99.90;;;;;;5127479;28;20247;-51
2023/11/14 07:28:23;;;;;;;25.95;4.35;;;11.80;99.90;;;;;;5128055;28;20038;-51
2023/11/14 07:30:50;;;;;;;25.45;4.68;;;11.80;99.90;;;;;;5128219;28;20024;-50
2023/11/14 07:33:16;;;;;;;33.05;5.78;;;11.80;99.90;;;;;;5127143;28;20027;-50
2023/11/14 07:35:42;;;;;;;29.20;4.32;;;11.80;99.90;;;;;;5128035;28;20051;-51
2023/11/14 07:38:08;;;;;;;28.73;3.60;;;11.70;99.90;;;;;;5126818;28;20022;-51
2023/11/14 07:40:33;;;;;;;28.17;3.70;;;11.80;99.90;;;;;;5126761;28;20034;-51
2023/11/14 07:43:03;;;;;;;20.60;3.80;;;11.70;99.90;;;;;;5126337;28;20073;-51
2023/11/14 07:45:29;;;;;;;24.90;3.10;;;11.70;99.90;;;;;;5126432;28;20081;-50
2023/11/14 07:47:55;;;;;;;21.50;4.72;;;11.70;99.90;;;;;;5127681;28;20035;-51
2023/11/14 07:50:21;;;;;;;23.98;2.95;;;11.70;99.90;;;;;;5127682;28;20023;-51
2023/11/14 07:52:46;;;;;;;25.67;3.78;;;11.70;99.90;;;;;;5127632;28;20023;-51
2023/11/14 07:55:12;;;;;;;18.85;3.13;;;11.60;99.90;;;;;;5127404;28;20093;-48
2023/11/14 07:57:38;;;;;;;21.35;3.25;;;11.50;99.90;;;;;;5126211;28;20027;-49
2023/11/14 08:00:08;;;;;;;20.50;3.85;;;11.50;99.90;;;;;;5127551;28;20319;-48
2023/11/14 08:02:35;;;;;;;21.98;3.58;;;11.40;99.90;;;;;;5127242;28;20036;-49
2023/11/14 08:05:00;;;;;;;30.90;3.70;;;11.40;99.90;;;;;;5127422;28;20050;-48
2023/11/14 08:07:26;;;;;;;20.00;3.33;;;11.30;99.90;;;;;;5125675;28;20044;-48
2023/11/14 08:09:52;;;;;;;28.42;3.92;;;11.30;99.90;;;;;;5127103;28;20028;-50
2023/11/14 08:12:17;;;;;;;20.73;4.28;;;11.20;99.90;;;;;;5127210;28;20031;-48
2023/11/14 08:14:45;;;;;;;20.05;3.25;;;11.20;99.90;;;;;;5126663;28;20197;-49
2023/11/14 08:17:10;;;;;;;26.02;4.57;;;11.20;99.90;;;;;;5126308;28;20277;-48
2023/11/14 08:19:36;;;;;;;24.73;3.22;;;11.20;99.90;;;;;;5127387;28;20028;-51
2023/11/14 08:22:06;;;;;;;29.63;4.97;;;11.10;99.90;;;;;;5125766;28;20057;-50
2023/11/14 08:24:33;;;;;;;23.45;4.05;;;11.10;99.90;;;;;;5126945;28;20020;-51
2023/11/14 08:26:59;;;;;;;25.00;3.38;;;11.10;99.90;;;;;;5125617;28;20312;-50
2023/11/14 08:29:24;;;;;;;27.40;3.60;;;11.10;99.90;;;;;;5126685;28;20031;-50
2023/11/14 08:31:50;;;;;;;25.88;3.80;;;11.10;99.90;;;;;;5126649;28;20023;-50
2023/11/14 08:34:16;;;;;;;33.28;5.05;;;11.10;99.90;;;;;;5126700;28;20070;-50
2023/11/14 08:36:41;;;;;;;26.42;3.95;;;11.20;99.90;;;;;;5125875;28;20297;-49
2023/11/14 08:39:12;;;;;;;28.05;3.78;;;11.20;99.90;;;;;;5126695;28;20109;-48
2023/11/14 08:41:37;;;;;;;27.63;6.57;;;11.20;99.90;;;;;;5126214;28;20046;-51
2023/11/14 08:44:03;;;;;;;22.55;4.10;;;11.20;99.90;;;;;;5126225;28;20322;-51
2023/11/14 08:46:29;;;;;;;24.42;4.10;;;11.20;99.90;;;;;;5126531;28;20273;-51
2023/11/14 08:48:55;;;;;;;29.48;5.32;;;11.20;99.90;;;;;;5125180;28;20039;-50
2023/11/14 08:51:21;;;;;;;33.90;4.70;;;11.20;99.90;;;;;;5125942;28;20091;-50
2023/11/14 08:53:47;;;;;;;26.23;3.70;;;11.30;99.90;;;;;;5126407;28;20293;-50
2023/11/14 08:56:12;;;;;;;28.67;5.53;;;11.30;99.90;;;;;;5126119;28;20091;-51
2023/11/14 08:58:38;;;;;;;29.85;4.25;;;11.30;99.90;;;;;;5125325;28;20313;-51
2023/11/14 09:01:04;;;;;;;38.92;4.88;;;11.30;99.90;;;;;;5125922;28;20023;-51
2023/11/14 09:03:30;;;;;;;26.30;4.68;;;11.40;99.90;;;;;;5125223;28;20233;-49
2023/11/14 09:05:56;;;;;;;25.40;4.78;;;11.50;99.90;;;;;;5125028;28;20027;-48
2023/11/14 09:08:22;;;;;;;22.95;4.10;;;11.60;99.90;;;;;;5126028;28;20039;-51
2023/11/14 09:10:48;;;;;;;20.27;3.35;;;11.60;99.90;;;;;;5125279;28;20327;-50
2023/11/14 09:13:14;;;;;;;28.92;5.25;;;11.70;99.90;;;;;;5126308;28;20024;-52
2023/11/14 09:15:40;;;;;;;26.00;4.00;;;11.70;99.90;;;;;;5125882;28;20087;-51
2023/11/14 09:18:06;;;;;;;20.20;3.55;;;11.70;99.90;;;;;;5124781;28;20072;-51
2023/11/14 09:20:32;;;;;;;23.20;3.60;;;11.80;99.90;;;;;;5126049;28;20127;-52
2023/11/14 09:22:57;;;;;;;30.73;4.50;;;11.80;99.90;;;;;;5107834;28;20133;-52
2023/11/14 09:25:23;;;;;;;14.65;3.35;;;11.80;99.90;;;;;;5125629;28;20120;-52
2023/11/14 09:27:49;;;;;;;23.88;4.97;;;11.90;99.90;;;;;;5126090;28;20305;-49
2023/11/14 09:30:14;;;;;;;20.38;3.47;;;12.00;99.90;;;;;;5125881;28;20153;-51
2023/11/14 09:32:41;;;;;;;15.75;2.53;;;12.10;99.90;;;;;;5125513;28;20108;-52
2023/11/14 09:35:07;;;;;;;25.35;3.20;;;12.40;99.90;;;;;;5124773;28;20342;-51
2023/11/14 09:37:33;;;;;;;25.50;3.88;;;12.60;99.90;;;;;;5125965;28;20027;-50
2023/11/14 09:39:59;;;;;;;28.92;3.70;;;13.00;99.90;;;;;;5124507;28;20042;-51
2023/11/14 09:42:25;;;;;;;18.35;3.08;;;13.10;99.90;;;;;;5125727;28;20023;-52
2023/11/14 09:44:50;;;;;;;19.67;4.78;;;13.10;99.90;;;;;;5125822;28;20043;-52
2023/11/14 09:47:17;;;;;;;12.45;2.40;;;13.00;99.90;;;;;;5125893;28;20099;-52
2023/11/14 09:49:43;;;;;;;16.90;2.70;;;13.00;99.90;;;;;;5129585;28;20020;-52
2023/11/14 09:52:12;;;;;;;17.77;2.75;;;13.00;99.90;;;;;;5128478;28;20019;-52
2023/11/14 09:54:38;;;;;;;13.95;2.13;;;13.10;99.90;;;;;;5129799;28;20032;-52
2023/11/14 09:57:05;;;;;;;23.13;4.50;;;13.10;99.90;;;;;;5128709;28;20068;-49
2023/11/14 09:59:32;;;;;;;17.40;2.72;;;13.10;99.90;;;;;;5128809;28;20285;-51
2023/11/14 10:01:58;;;;;;;16.67;3.15;;;13.10;99.90;;;;;;5128820;28;20084;-52
2023/11/14 10:04:24;;;;;;;17.23;3.33;;;13.00;99.90;;;;;;5129208;28;20028;-52
2023/11/14 10:06:51;;;;;;;17.73;2.85;;;13.00;99.90;;;;;;5129491;28;20055;-50
2023/11/14 10:09:18;;;;;;;15.88;2.50;;;13.00;99.90;;;;;;5128726;28;20047;-49
2023/11/14 10:11:48;;;;;;;15.10;2.95;;;13.10;99.90;;;;;;5111872;28;20087;-49
2023/11/14 10:14:14;;;;;;;24.83;3.40;;;13.10;99.90;;;;;;5129566;28;20035;-49
2023/11/14 10:16:40;;;;;;;21.52;3.03;;;13.10;99.90;;;;;;5128652;28;20375;-50
2023/11/14 10:19:13;;;;;;;16.40;2.80;;;13.10;99.90;;;;;;5128699;28;20011;-49
2023/11/14 10:21:42;;;;;;;19.73;2.70;;;13.20;99.90;;;;;;5129396;28;20068;-51
2023/11/14 10:24:14;;;;;;;7.32;1.80;;;13.30;99.90;;;;;;5128959;28;20030;-51
2023/11/14 10:26:53;;;;;;;19.20;2.90;;;13.30;99.90;;;;;;5129141;28;20023;-50
2023/11/14 10:29:20;;;;;;;17.13;2.38;;;13.40;99.90;;;;;;5129051;28;20043;-51
2023/11/14 10:31:46;;;;;;;5.97;1.70;;;13.50;99.90;;;;;;5128924;28;20035;-49
2023/11/14 10:34:33;;;;;;;18.02;2.35;;;13.50;99.90;;;;;;5128862;28;20103;-51
2023/11/14 10:37:03;;;;;;;16.17;2.60;;;13.40;99.90;;;;;;5128213;28;20036;-49
2023/11/14 10:39:29;;;;;;;9.02;2.15;;;13.40;99.90;;;;;;5129319;28;20035;-55
2023/11/14 10:41:57;;;;;;;15.65;2.25;;;13.20;99.90;;;;;;5128989;28;20083;-48
2023/11/14 10:44:23;;;;;;;14.98;2.33;;;13.10;99.90;;;;;;5127982;28;20037;-49
2023/11/14 10:46:58;;;;;;;11.10;2.28;;;13.20;99.90;;;;;;5129075;28;20189;-51
2023/11/14 10:49:27;;;;;;;13.70;3.00;;;13.30;99.90;;;;;;5127822;28;20041;-49
2023/11/14 10:51:53;;;;;;;17.85;3.90;;;13.30;99.90;;;;;;5127826;28;20039;-50
2023/11/14 10:54:18;;;;;;;12.23;2.42;;;13.30;99.90;;;;;;5128449;28;20292;-52
2023/11/14 10:56:45;;;;;;;13.60;2.45;;;13.50;99.90;;;;;;5128345;28;20232;-51
2023/11/14 10:59:12;;;;;;;12.20;2.40;;;13.60;99.90;;;;;;5127696;28;20052;-52
2023/11/14 11:01:39;;;;;;;10.45;2.28;;;13.70;99.90;;;;;;5127230;28;20077;-50
2023/11/14 11:04:05;;;;;;;11.20;2.55;;;13.80;99.90;;;;;;5127309;28;20397;-50
2023/11/14 11:06:31;;;;;;;12.20;1.88;;;13.90;99.90;;;;;;5126989;28;20048;-50
2023/11/14 11:08:57;;;;;;;11.75;1.98;;;13.90;99.90;;;;;;5127756;28;20042;-50
2023/11/14 11:11:25;;;;;;;12.93;2.15;;;13.80;99.90;;;;;;5110147;28;20023;-51
2023/11/14 11:13:51;;;;;;;16.10;2.53;;;13.80;99.90;;;;;;5110140;28;20029;-50
2023/11/14 11:16:41;;;;;;;16.02;3.08;;;13.70;99.90;;;;;;5109822;28;20024;-47
2023/11/14 11:19:07;;;;;;;11.05;2.55;;;13.60;99.90;;;;;;5128104;28;20034;-48
2023/11/14 11:21:34;;;;;;;10.82;2.53;;;13.60;99.90;;;;;;5126950;28;20277;-48
2023/11/14 11:24:09;;;;;;;13.85;2.40;;;13.60;99.90;;;;;;5110267;28;20312;-48
2023/11/14 11:27:22;;;;;;;13.70;2.33;;;13.50;99.90;;;;;;5128031;28;20110;-48
2023/11/14 11:29:50;;;;;;;21.60;8.68;;;13.30;99.90;;;;;;5127987;28;20027;-50
2023/11/14 11:32:33;;;;;;;24.83;9.70;;;13.30;99.90;;;;;;5127656;28;20181;-51
2023/11/14 11:35:19;;;;;;;17.30;3.15;;;13.40;99.90;;;;;;5127666;28;20042;-47
2023/11/14 11:37:46;;;;;;;9.75;3.47;;;13.30;99.90;;;;;;5117066;28;20067;-48
2023/11/14 11:40:12;;;;;;;20.10;7.90;;;13.20;99.90;;;;;;5127401;28;20331;-48
2023/11/14 11:42:43;;;;;;;18.20;3.17;;;13.20;99.90;;;;;;5127739;28;20023;-50
2023/11/14 11:45:27;;;;;;;22.67;12.48;;;13.20;99.90;;;;;;5127887;28;20256;-48
2023/11/14 11:47:57;;;;;;;12.80;2.28;;;13.20;99.90;;;;;;5127590;28;20027;-48
2023/11/14 11:50:35;;;;;;;12.93;3.33;;;13.20;99.90;;;;;;5127271;28;20106;-46
2023/11/14 11:53:07;;;;;;;22.70;9.63;;;13.20;99.90;;;;;;5127372;28;20036;-48
2023/11/14 11:55:36;;;;;;;17.88;5.97;;;13.20;99.90;;;;;;5127488;28;20038;-48
2023/11/14 11:58:05;;;;;;;11.63;1.95;;;13.90;99.90;;;;;;5125965;28;20024;-48
2023/11/14 12:00:31;;;;;;;15.23;2.28;;;13.70;99.90;;;;;;5127141;28;20042;-46
2023/11/14 12:03:01;;;;;;;16.38;3.33;;;13.50;99.90;;;;;;5126965;28;20189;-48
2023/11/14 12:05:28;;;;;;;13.05;2.03;;;14.00;99.90;;;;;;5126158;28;20071;-47
2023/11/14 12:07:55;;;;;;;8.85;1.90;;;14.30;99.90;;;;;;5126654;28;20051;-47
2023/11/14 12:10:21;;;;;;;15.20;2.42;;;15.90;99.90;;;;;;5126637;28;20031;-48
2023/11/14 12:12:47;;;;;;;10.63;2.28;;;15.30;99.90;;;;;;5125773;28;20086;-47
2023/11/14 12:15:16;;;;;;;12.98;2.20;;;14.50;99.90;;;;;;5125499;28;20316;-47
2023/11/14 12:17:55;;;;;;;16.33;2.30;;;14.10;99.90;;;;;;5125741;28;20035;-48
2023/11/14 12:20:21;;;;;;;10.10;1.75;;;14.10;99.90;;;;;;5126678;28;20070;-48
2023/11/14 12:22:49;;;;;;;16.67;2.72;;;14.00;99.90;;;;;;5125311;28;20043;-48
2023/11/14 12:25:21;;;;;;;12.65;2.35;;;13.70;99.90;;;;;;5125341;28;20054;-48
2023/11/14 12:27:55;;;;;;;15.52;2.38;;;13.50;99.90;;;;;;5126446;28;20189;-48
2023/11/14 12:30:21;;;;;;;12.73;2.72;;;13.50;99.90;;;;;;5126707;28;20028;-48
2023/11/14 12:33:04;;;;;;;10.82;2.35;;;13.40;99.90;;;;;;5126509;28;20094;-48
2023/11/14 12:35:43;;;;;;;15.85;2.63;;;13.40;99.90;;;;;;5125363;28;20027;-48